createdAt,value
2019-01-31T00:01:28.353Z,95990.94
2019-01-31T00:04:43.728Z,95989.53
2019-01-31T00:07:54.781Z,95992.80
2019-01-31T00:11:17.652Z,95994.09
2019-01-31T00:14:51.465Z,95994.68
2019-01-31T00:17:52.016Z,96000.97
2019-01-31T00:20:49.360Z,96006.92
2019-01-31T00:23:58.435Z,96005.66
2019-01-31T00:27:26.723Z,96006.22
2019-01-31T00:30:22.646Z,96011.13
2019-01-31T00:33:54.970Z,96022.58
2019-01-31T00:37:02.159Z,96011.01
2019-01-31T00:40:01.531Z,96010.43
2019-01-31T00:42:49.164Z,96014.03
2019-01-31T00:45:41.313Z,96019.52
2019-01-31T00:48:35.818Z,96020.13
2019-01-31T00:51:46.415Z,96016.38
2019-01-31T00:54:34.580Z,96023.84
2019-01-31T00:57:36.331Z,96027.12
2019-01-31T01:00:57.711Z,96020.02
2019-01-31T01:04:15.283Z,96015.34
2019-01-31T01:07:26.140Z,96023.75
2019-01-31T01:10:27.808Z,96028.05
2019-01-31T01:13:11.856Z,96021.41
2019-01-31T01:16:02.669Z,96013.47
2019-01-31T01:19:07.714Z,96014.63
2019-01-31T01:22:19.590Z,96013.95
2019-01-31T01:25:28.979Z,96020.80
2019-01-31T01:28:33.742Z,96018.95
2019-01-31T01:31:36.634Z,96013.00
2019-01-31T01:34:33.800Z,96010.07
2019-01-31T01:37:28.401Z,96013.55
2019-01-31T01:40:52.811Z,95998.52
2019-01-31T01:44:31.963Z,95993.38
2019-01-31T01:47:28.076Z,96008.78
2019-01-31T01:50:08.159Z,96009.86
2019-01-31T01:53:09.819Z,96006.80
2019-01-31T01:56:16.549Z,96015.32
2019-01-31T01:59:23.220Z,96017.19
2019-01-31T02:02:43.243Z,96015.91
2019-01-31T02:05:36.708Z,96019.63
2019-01-31T02:08:56.102Z,96020.33
2019-01-31T02:12:15.604Z,96010.55
2019-01-31T02:15:15.411Z,96020.48
2019-01-31T02:18:00.826Z,96017.79
2019-01-31T02:20:54.113Z,96016.51
2019-01-31T02:23:43.140Z,96012.77
2019-01-31T02:27:01.995Z,96014.30
2019-01-31T02:30:32.755Z,96007.64
2019-01-31T02:33:28.478Z,96002.62
2019-01-31T02:36:32.810Z,96006.11
2019-01-31T02:39:23.954Z,96001.34
